createdAt,value
2023-03-10T00:01:54.808Z,31.17
2023-03-10T00:03:58.004Z,29.57
2023-03-10T00:06:01.121Z,29.77
2023-03-10T00:08:03.869Z,27.27
2023-03-10T00:10:08.859Z,31.33
2023-03-10T00:12:11.671Z,28.90
2023-03-10T00:14:14.840Z,26.00
2023-03-10T00:16:19.105Z,27.93
2023-03-10T00:18:21.965Z,26.07
2023-03-10T00:20:24.857Z,25.73
2023-03-10T00:22:27.623Z,24.87
2023-03-10T00:24:30.351Z,21.70
2023-03-10T00:26:34.412Z,28.23
2023-03-10T00:28:37.175Z,22.63
2023-03-10T00:30:39.942Z,26.50
2023-03-10T00:32:42.735Z,20.70
2023-03-10T00:34:45.602Z,22.13
2023-03-10T00:36:48.337Z,25.70
2023-03-10T00:38:51.267Z,25.67
2023-03-10T00:40:59.006Z,22.30
2023-03-10T00:43:03.090Z,24.53
2023-03-10T00:45:06.554Z,21.80
2023-03-10T00:47:09.305Z,20.80
2023-03-10T00:49:13.051Z,25.07
2023-03-10T00:51:15.768Z,20.80
2023-03-10T00:53:18.579Z,25.20
2023-03-10T00:55:21.300Z,22.20
2023-03-10T00:57:24.084Z,24.07
2023-03-10T00:59:29.589Z,22.40
2023-03-10T01:01:36.923Z,17.20
2023-03-10T01:03:39.722Z,19.03
2023-03-10T01:05:42.404Z,19.80
2023-03-10T01:07:45.169Z,25.00
2023-03-10T01:09:47.914Z,20.30
2023-03-10T01:11:50.613Z,17.60
2023-03-10T01:13:53.481Z,19.37
2023-03-10T01:15:57.555Z,24.50
2023-03-10T01:18:03.487Z,22.20
2023-03-10T01:20:08.297Z,16.77
2023-03-10T01:22:11.009Z,20.90
2023-03-10T01:24:15.935Z,19.07
2023-03-10T01:26:19.021Z,18.60
2023-03-10T01:28:21.821Z,17.77
2023-03-10T01:30:24.539Z,17.37
2023-03-10T01:32:28.595Z,19.70
2023-03-10T01:34:31.298Z,17.90
2023-03-10T01:36:34.081Z,20.40
2023-03-10T01:38:36.825Z,16.37
2023-03-10T01:40:39.580Z,15.10
2023-03-10T01:42:42.289Z,16.73
2023-03-10T01:44:59.906Z,15.57
2023-03-10T01:47:02.651Z,13.10
2023-03-10T01:49:09.157Z,15.27
2023-03-10T01:51:11.944Z,15.50
2023-03-10T01:53:14.768Z,17.83
2023-03-10T01:55:18.749Z,21.63
2023-03-10T01:57:22.972Z,13.50
2023-03-10T01:59:25.871Z,16.27
2023-03-10T02:01:28.566Z,14.20
2023-03-10T02:03:33.793Z,13.80
2023-03-10T02:05:38.667Z,15.80
2023-03-10T02:07:41.524Z,13.00
2023-03-10T02:09:45.018Z,12.37
2023-03-10T02:11:48.387Z,18.10
2023-03-10T02:13:51.523Z,18.47
2023-03-10T02:15:54.316Z,15.87
2023-03-10T02:17:57.095Z,20.40
2023-03-10T02:20:07.170Z,16.97
2023-03-10T02:22:12.298Z,21.60
2023-03-10T02:24:20.058Z,14.83
2023-03-10T02:26:25.951Z,14.73
2023-03-10T02:28:29.983Z,15.77
2023-03-10T02:30:33.706Z,14.60
2023-03-10T02:32:38.485Z,16.83
2023-03-10T02:34:41.229Z,12.83
2023-03-10T02:36:43.919Z,16.93
2023-03-10T02:38:46.665Z,13.53
2023-03-10T02:40:50.175Z,15.50
2023-03-10T02:42:52.895Z,13.83
2023-03-10T02:44:56.958Z,12.70
2023-03-10T02:46:59.637Z,11.43
2023-03-10T02:49:02.606Z,13.67
2023-03-10T02:51:07.310Z,10.97
2023-03-10T02:53:12.462Z,9.27
2023-03-10T02:55:16.014Z,16.00
2023-03-10T02:57:18.722Z,15.47
2023-03-10T02:59:21.439Z,11.20
2023-03-10T03:01:26.252Z,9.70
2023-03-10T03:03:29.140Z,16.27
2023-03-10T03:05:31.873Z,12.80
2023-03-10T03:07:34.591Z,12.50
2023-03-10T03:09:37.349Z,14.43
2023-03-10T03:11:40.070Z,11.10
2023-03-10T03:13:42.887Z,13.40
2023-03-10T03:15:45.604Z,13.57
2023-03-10T03:17:49.750Z,14.93
2023-03-10T03:19:52.441Z,12.60
2023-03-10T03:21:55.133Z,13.37
2023-03-10T03:23:57.861Z,9.37
2023-03-10T03:26:00.559Z,12.13
2023-03-10T03:28:03.368Z,10.50
2023-03-10T03:30:07.758Z,11.50
2023-03-10T03:32:10.570Z,9.17
2023-03-10T03:34:15.530Z,10.57
2023-03-10T03:36:18.470Z,9.83
2023-03-10T03:38:21.202Z,10.83
2023-03-10T03:40:24.549Z,9.40
2023-03-10T03:42:27.268Z,8.07
2023-03-10T03:44:29.982Z,8.10
2023-03-10T03:46:32.777Z,9.43
2023-03-10T03:48:35.559Z,9.00
2023-03-10T03:50:39.606Z,7.57
2023-03-10T03:52:42.492Z,7.80
2023-03-10T03:54:45.231Z,7.23
2023-03-10T03:56:47.952Z,9.10
2023-03-10T03:58:50.677Z,8.97
2023-03-10T04:00:53.496Z,6.93
2023-03-10T04:02:56.347Z,8.67
2023-03-10T04:04:59.060Z,7.23
2023-03-10T04:07:03.200Z,8.20
2023-03-10T04:09:06.556Z,7.37
2023-03-10T04:11:09.260Z,12.00
2023-03-10T04:13:11.991Z,10.30
2023-03-10T04:15:14.804Z,6.10
2023-03-10T04:17:17.689Z,8.77
2023-03-10T04:19:20.427Z,8.10
2023-03-10T04:21:23.143Z,6.17
2023-03-10T04:23:27.215Z,6.60
2023-03-10T04:25:29.951Z,17.40
2023-03-10T04:27:32.655Z,28.13
2023-03-10T04:29:35.767Z,13.17
2023-03-10T04:31:38.633Z,9.00
2023-03-10T04:33:41.444Z,8.43
2023-03-10T04:35:44.470Z,33.40
2023-03-10T04:37:47.300Z,23.63
2023-03-10T04:39:51.393Z,20.33
2023-03-10T04:41:54.099Z,23.73
2023-03-10T04:43:56.821Z,7.63
2023-03-10T04:45:59.656Z,49.40
2023-03-10T04:48:02.402Z,79.63
2023-03-10T04:50:06.029Z,35.50
2023-03-10T04:52:08.749Z,15.73
2023-03-10T04:54:11.573Z,7.80
2023-03-10T04:56:15.632Z,8.93
2023-03-10T04:58:18.774Z,14.40
2023-03-10T05:00:21.802Z,12.67
2023-03-10T05:02:24.563Z,9.93
2023-03-10T05:04:27.427Z,12.50
2023-03-10T05:06:30.225Z,9.27
2023-03-10T05:08:32.970Z,11.00
2023-03-10T05:10:35.713Z,10.00
2023-03-10T05:12:42.131Z,14.57
2023-03-10T05:14:44.876Z,8.63
2023-03-10T05:16:48.410Z,9.10
2023-03-10T05:18:51.159Z,11.53
2023-03-10T05:20:54.399Z,11.80
2023-03-10T05:22:57.119Z,8.90
2023-03-10T05:24:59.848Z,9.40
2023-03-10T05:27:03.453Z,9.10
2023-03-10T05:29:07.513Z,15.20
2023-03-10T05:31:11.143Z,64.90
2023-03-10T05:33:13.894Z,20.30
2023-03-10T05:35:16.633Z,10.03
2023-03-10T05:37:19.457Z,10.47
2023-03-10T05:39:22.187Z,8.80
2023-03-10T05:41:24.893Z,14.93
2023-03-10T05:43:27.588Z,8.93
2023-03-10T05:45:31.664Z,13.10
2023-03-10T05:47:34.722Z,9.63
2023-03-10T05:49:38.836Z,6.90
2023-03-10T05:51:41.673Z,9.40
2023-03-10T05:53:44.416Z,9.77
2023-03-10T05:55:47.144Z,8.60
2023-03-10T05:57:49.858Z,8.67
2023-03-10T05:59:52.937Z,7.90
2023-03-10T06:01:56.984Z,9.37
2023-03-10T06:03:59.767Z,9.73
2023-03-10T06:06:02.850Z,7.30
2023-03-10T06:08:06.011Z,11.77
2023-03-10T06:10:10.032Z,8.47
2023-03-10T06:12:13.191Z,8.63
2023-03-10T06:14:15.921Z,8.80
2023-03-10T06:16:18.770Z,9.60
2023-03-10T06:18:23.107Z,6.40
2023-03-10T06:20:25.885Z,8.77
2023-03-10T06:22:31.175Z,7.93
2023-03-10T06:24:34.122Z,14.73
2023-03-10T06:26:36.823Z,5.70
2023-03-10T06:28:40.200Z,16.53
2023-03-10T06:30:42.942Z,12.50
2023-03-10T06:32:45.744Z,6.60
2023-03-10T06:34:49.845Z,6.83
2023-03-10T06:36:52.561Z,16.20
2023-03-10T06:38:55.528Z,9.90
2023-03-10T06:40:58.330Z,8.97
2023-03-10T06:43:01.232Z,7.20
2023-03-10T06:45:04.079Z,6.10
2023-03-10T06:47:07.122Z,7.57
2023-03-10T06:49:09.823Z,8.57
2023-03-10T06:51:16.329Z,7.33
2023-03-10T06:53:20.480Z,9.13
2023-03-10T06:55:23.217Z,8.63
2023-03-10T06:57:25.929Z,10.80
2023-03-10T06:59:28.661Z,9.80
2023-03-10T07:01:32.277Z,10.83
2023-03-10T07:03:35.036Z,6.40
2023-03-10T07:05:37.809Z,11.17
2023-03-10T07:07:41.892Z,5.77
2023-03-10T07:09:46.139Z,6.63
2023-03-10T07:11:48.858Z,8.30
2023-03-10T07:13:51.605Z,9.00
2023-03-10T07:15:54.388Z,9.27
2023-03-10T07:17:57.083Z,11.03
2023-03-10T07:19:59.990Z,5.73
2023-03-10T07:22:02.693Z,7.73
2023-03-10T07:24:07.071Z,6.70
2023-03-10T07:26:10.125Z,10.80
2023-03-10T07:28:13.042Z,10.30
2023-03-10T07:30:16.254Z,6.33
2023-03-10T07:32:19.007Z,7.57
2023-03-10T07:34:21.780Z,8.20
2023-03-10T07:36:24.602Z,5.10
2023-03-10T07:38:27.392Z,4.90
2023-03-10T07:40:31.476Z,4.57
2023-03-10T07:42:34.196Z,4.90
2023-03-10T07:44:36.911Z,4.77
2023-03-10T07:46:39.720Z,6.60
2023-03-10T07:48:42.590Z,4.67
2023-03-10T07:50:45.323Z,4.90
2023-03-10T07:52:48.225Z,5.47
2023-03-10T07:54:51.070Z,5.10
2023-03-10T07:56:55.146Z,5.10
2023-03-10T07:58:59.251Z,5.97
2023-03-10T08:01:02.776Z,5.57
2023-03-10T08:03:05.713Z,6.10
2023-03-10T08:05:09.237Z,6.87
2023-03-10T08:07:13.066Z,5.47
2023-03-10T08:09:15.768Z,7.07
2023-03-10T08:11:18.785Z,6.63
2023-03-10T08:13:22.874Z,5.90
2023-03-10T08:15:26.340Z,9.47
2023-03-10T08:17:30.802Z,7.20
2023-03-10T08:19:33.584Z,7.40
2023-03-10T08:21:36.478Z,10.20
2023-03-10T08:23:39.485Z,7.30
2023-03-10T08:25:42.226Z,7.17
2023-03-10T08:27:44.928Z,7.27
2023-03-10T08:29:48.996Z,7.93
2023-03-10T08:31:51.868Z,7.20
2023-03-10T08:33:56.315Z,9.20
2023-03-10T08:36:03.838Z,8.93
2023-03-10T08:38:06.603Z,6.30
2023-03-10T08:40:11.734Z,5.90
2023-03-10T08:42:14.700Z,7.43
2023-03-10T08:44:17.866Z,6.07
2023-03-10T08:46:22.788Z,8.97
2023-03-10T08:48:25.564Z,5.57
2023-03-10T08:50:28.303Z,7.23
2023-03-10T08:52:31.025Z,7.03
2023-03-10T08:54:33.771Z,9.43
2023-03-10T08:56:36.538Z,6.63
2023-03-10T08:58:39.379Z,5.80
2023-03-10T09:00:42.929Z,6.00
2023-03-10T09:02:47.033Z,8.87
2023-03-10T09:04:50.240Z,6.63
2023-03-10T09:06:52.997Z,5.60
2023-03-10T09:08:55.768Z,5.40
2023-03-10T09:10:58.522Z,6.90
2023-03-10T09:13:13.226Z,5.63
2023-03-10T09:15:16.513Z,9.23
2023-03-10T09:17:19.777Z,6.40
2023-03-10T09:19:23.981Z,7.30
2023-03-10T09:21:26.885Z,5.60
2023-03-10T09:23:29.700Z,5.00
2023-03-10T09:25:32.566Z,4.47
2023-03-10T09:27:35.280Z,6.03
2023-03-10T09:29:42.970Z,5.73
2023-03-10T09:31:48.294Z,5.37
2023-03-10T09:33:51.296Z,4.60
2023-03-10T09:36:06.554Z,5.60
2023-03-10T09:38:09.865Z,6.20
2023-03-10T09:40:14.264Z,5.77
2023-03-10T09:42:38.504Z,10.83
2023-03-10T09:44:43.410Z,9.10
2023-03-10T09:46:50.556Z,5.47
2023-03-10T09:48:56.118Z,6.23
2023-03-10T09:51:01.260Z,6.97
2023-03-10T09:53:08.226Z,5.80
2023-03-10T09:55:16.271Z,20.70
2023-03-10T09:57:20.006Z,20.13
2023-03-10T09:59:26.174Z,5.43
2023-03-10T10:01:30.045Z,5.80
2023-03-10T10:03:46.393Z,6.10
2023-03-10T10:05:55.202Z,7.43
2023-03-10T10:08:00.449Z,7.70
2023-03-10T10:10:07.449Z,5.47
2023-03-10T10:12:12.410Z,4.53
2023-03-10T10:14:27.769Z,5.13
2023-03-10T10:16:35.057Z,4.23
2023-03-10T10:18:39.420Z,12.87
2023-03-10T10:20:44.272Z,4.17
2023-03-10T10:22:47.958Z,5.27
2023-03-10T10:25:03.301Z,10.03
2023-03-10T10:27:06.068Z,12.93
2023-03-10T10:29:15.035Z,19.87
2023-03-10T10:31:19.961Z,10.43
2023-03-10T10:33:23.167Z,7.10
2023-03-10T10:35:26.786Z,6.90
2023-03-10T10:37:30.719Z,4.40
2023-03-10T10:39:34.282Z,10.10
2023-03-10T10:41:38.340Z,5.90
2023-03-10T10:43:41.573Z,7.20
2023-03-10T10:45:44.393Z,6.20
2023-03-10T10:47:49.181Z,7.83
2023-03-10T10:49:51.968Z,7.73
2023-03-10T10:51:59.695Z,7.13
2023-03-10T10:54:04.394Z,11.73
2023-03-10T10:56:12.775Z,7.73
2023-03-10T10:58:29.234Z,5.67
2023-03-10T11:00:32.848Z,6.73
2023-03-10T11:02:36.641Z,5.53
2023-03-10T11:04:43.530Z,4.90
2023-03-10T11:06:46.309Z,5.93
2023-03-10T11:08:51.399Z,5.00
2023-03-10T11:10:56.011Z,5.67
2023-03-10T11:13:01.479Z,6.87
2023-03-10T11:15:12.522Z,5.00
2023-03-10T11:17:16.467Z,4.40
2023-03-10T11:19:24.643Z,5.53
2023-03-10T11:21:29.277Z,7.97
2023-03-10T11:23:34.227Z,4.67
2023-03-10T11:25:38.898Z,5.03
2023-03-10T11:27:47.346Z,5.30
2023-03-10T11:29:57.569Z,6.40
2023-03-10T11:32:05.702Z,4.60
2023-03-10T11:34:16.949Z,6.27
2023-03-10T11:36:28.092Z,5.60
2023-03-10T11:38:35.693Z,5.37
2023-03-10T11:40:43.356Z,4.97
2023-03-10T11:42:48.941Z,4.03
2023-03-10T11:44:58.044Z,4.80
2023-03-10T11:47:04.782Z,7.80
2023-03-10T11:49:08.133Z,4.83
2023-03-10T11:51:13.638Z,4.73
2023-03-10T11:53:17.376Z,4.70
2023-03-10T11:55:20.947Z,4.90
2023-03-10T11:57:24.336Z,4.53
2023-03-10T11:59:27.765Z,5.40
2023-03-10T12:01:32.356Z,4.97
2023-03-10T12:03:41.586Z,5.10
2023-03-10T12:05:46.898Z,8.63
2023-03-10T12:07:50.851Z,5.30
2023-03-10T12:09:54.945Z,6.00
2023-03-10T12:11:57.751Z,6.60
2023-03-10T12:14:01.324Z,4.90
2023-03-10T12:16:04.157Z,5.43
2023-03-10T12:18:07.570Z,6.33
2023-03-10T12:20:25.937Z,5.67
2023-03-10T12:22:37.716Z,5.87
2023-03-10T12:24:44.250Z,5.83
2023-03-10T12:27:03.979Z,7.30
2023-03-10T12:29:39.426Z,5.50
2023-03-10T12:31:45.774Z,6.23
2023-03-10T12:33:51.406Z,6.93
2023-03-10T12:35:55.767Z,6.10
2023-03-10T12:38:23.371Z,5.10
2023-03-10T12:40:50.087Z,4.83
2023-03-10T12:42:52.815Z,4.93
2023-03-10T12:45:06.626Z,5.20
2023-03-10T12:47:26.477Z,6.80
2023-03-10T12:49:34.301Z,4.70
2023-03-10T12:51:41.534Z,4.60
2023-03-10T12:53:46.755Z,4.07
2023-03-10T12:56:18.224Z,4.70
2023-03-10T12:58:23.033Z,5.50
2023-03-10T13:00:30.726Z,5.03
2023-03-10T13:02:36.684Z,4.67
2023-03-10T13:04:39.400Z,4.60
2023-03-10T13:06:43.563Z,6.23
2023-03-10T13:08:46.979Z,5.83
2023-03-10T13:10:52.488Z,6.83
2023-03-10T13:12:57.584Z,9.03
2023-03-10T13:15:01.251Z,5.50
2023-03-10T13:17:03.987Z,8.97
2023-03-10T13:19:06.745Z,58.90
2023-03-10T13:21:26.840Z,13.17
2023-03-10T13:23:32.576Z,7.23
2023-03-10T13:25:36.749Z,6.03
2023-03-10T13:27:39.568Z,4.70
2023-03-10T13:29:42.394Z,5.50
2023-03-10T13:31:54.485Z,8.13
2023-03-10T13:33:57.549Z,5.90
2023-03-10T13:36:00.418Z,6.50
2023-03-10T13:38:07.814Z,6.47
2023-03-10T13:40:15.658Z,11.00
2023-03-10T13:42:28.417Z,10.17
2023-03-10T13:44:39.374Z,7.50
2023-03-10T13:46:47.537Z,6.00
2023-03-10T13:48:50.272Z,6.33
2023-03-10T13:51:08.244Z,7.63
2023-03-10T13:53:24.927Z,5.10
2023-03-10T13:55:29.133Z,5.10
2023-03-10T13:57:34.289Z,5.50
2023-03-10T13:59:36.999Z,8.57
2023-03-10T14:01:43.397Z,6.63
2023-03-10T14:03:53.801Z,7.00
2023-03-10T14:05:56.585Z,4.97
2023-03-10T14:07:59.858Z,5.10
2023-03-10T14:10:13.274Z,7.47
2023-03-10T14:12:34.980Z,10.40
2023-03-10T14:14:38.449Z,8.50
2023-03-10T14:16:52.353Z,5.40
2023-03-10T14:18:55.098Z,5.63
2023-03-10T14:20:57.835Z,7.10
2023-03-10T14:23:00.939Z,5.23
2023-03-10T14:25:07.106Z,5.23
2023-03-10T14:27:09.870Z,6.27
2023-03-10T14:29:16.576Z,7.87
2023-03-10T14:31:21.546Z,7.50
2023-03-10T14:33:24.378Z,7.00
2023-03-10T14:35:27.495Z,6.20
2023-03-10T14:37:30.270Z,6.17
2023-03-10T14:39:34.095Z,5.70
2023-03-10T14:41:37.063Z,6.47
2023-03-10T14:43:40.313Z,6.63
2023-03-10T14:45:45.200Z,6.10
2023-03-10T14:47:48.156Z,7.07
2023-03-10T14:49:51.094Z,6.50
2023-03-10T14:51:53.949Z,4.10
2023-03-10T14:53:56.676Z,4.63
2023-03-10T14:55:59.438Z,5.47
2023-03-10T14:58:02.977Z,5.33
2023-03-10T15:00:10.256Z,7.67
2023-03-10T15:02:19.286Z,6.60
2023-03-10T15:04:22.187Z,5.47
2023-03-10T15:06:24.960Z,7.17
2023-03-10T15:08:30.445Z,6.23
2023-03-10T15:10:34.712Z,6.33
2023-03-10T15:12:37.479Z,5.93
2023-03-10T15:14:40.197Z,7.13
2023-03-10T15:16:42.977Z,8.17
2023-03-10T15:18:49.129Z,6.30
2023-03-10T15:20:52.325Z,6.27
2023-03-10T15:22:55.085Z,9.30
2023-03-10T15:24:57.800Z,6.60
2023-03-10T15:27:00.577Z,5.50
2023-03-10T15:29:03.311Z,5.33
2023-03-10T15:31:06.572Z,6.83
2023-03-10T15:33:10.639Z,6.43
2023-03-10T15:35:14.976Z,7.80
2023-03-10T15:37:17.726Z,10.53
2023-03-10T15:39:31.075Z,5.80
2023-03-10T15:41:36.027Z,6.53
2023-03-10T15:43:38.767Z,5.20
2023-03-10T15:45:42.443Z,7.23
2023-03-10T15:47:45.224Z,6.50
2023-03-10T15:49:48.164Z,8.53
2023-03-10T15:51:52.284Z,7.83
2023-03-10T15:53:55.040Z,10.57
2023-03-10T15:55:57.741Z,9.33
2023-03-10T15:58:00.481Z,13.87
2023-03-10T16:00:04.005Z,11.43
2023-03-10T16:02:06.932Z,10.67
2023-03-10T16:04:09.718Z,9.40
2023-03-10T16:06:12.660Z,7.97
2023-03-10T16:08:16.757Z,11.30
2023-03-10T16:10:20.772Z,8.73
2023-03-10T16:12:23.506Z,9.87
2023-03-10T16:14:26.414Z,10.60
2023-03-10T16:16:29.510Z,9.13
2023-03-10T16:18:32.306Z,9.63
2023-03-10T16:20:35.023Z,11.20
2023-03-10T16:22:40.506Z,14.00
2023-03-10T16:24:44.741Z,8.10
2023-03-10T16:26:47.462Z,9.80
2023-03-10T16:28:52.517Z,9.77
2023-03-10T16:30:56.113Z,8.20
2023-03-10T16:33:00.774Z,20.90
2023-03-10T16:35:03.960Z,16.33
2023-03-10T16:37:08.076Z,10.93
2023-03-10T16:39:11.089Z,12.00
2023-03-10T16:41:15.158Z,10.23
2023-03-10T16:43:18.172Z,13.87
2023-03-10T16:45:20.884Z,12.50
2023-03-10T16:47:23.721Z,11.40
2023-03-10T16:49:26.492Z,14.03
2023-03-10T16:51:29.950Z,14.47
2023-03-10T16:53:32.722Z,13.53
2023-03-10T16:55:35.441Z,15.73
2023-03-10T16:57:39.488Z,13.20
2023-03-10T16:59:42.367Z,14.53
2023-03-10T17:01:45.194Z,16.50
2023-03-10T17:03:48.767Z,15.50
2023-03-10T17:05:53.682Z,24.27
2023-03-10T17:08:02.248Z,22.60
2023-03-10T17:10:05.520Z,21.13
2023-03-10T17:12:08.604Z,24.30
2023-03-10T17:14:14.104Z,23.30
2023-03-10T17:16:17.177Z,21.97
2023-03-10T17:18:20.300Z,19.90
2023-03-10T17:20:23.197Z,19.00
2023-03-10T17:22:25.937Z,19.57
2023-03-10T17:24:29.554Z,23.70
2023-03-10T17:26:32.372Z,19.20
2023-03-10T17:28:35.114Z,18.33
2023-03-10T17:30:41.028Z,19.47
2023-03-10T17:32:45.122Z,18.37
2023-03-10T17:34:52.013Z,14.80
2023-03-10T17:36:54.761Z,16.00
2023-03-10T17:38:58.189Z,16.93
2023-03-10T17:41:02.792Z,17.17
2023-03-10T17:43:23.087Z,18.37
2023-03-10T17:45:29.879Z,15.87
2023-03-10T17:47:33.996Z,16.43
2023-03-10T17:49:36.732Z,18.43
2023-03-10T17:51:40.638Z,16.07
2023-03-10T17:53:43.515Z,16.27
2023-03-10T17:55:46.298Z,18.50
2023-03-10T17:57:49.122Z,21.00
2023-03-10T17:59:51.852Z,19.00
2023-03-10T18:01:54.566Z,17.60
2023-03-10T18:03:59.354Z,17.60
2023-03-10T18:06:02.067Z,19.20
2023-03-10T18:08:04.885Z,24.13
2023-03-10T18:10:08.839Z,20.37
2023-03-10T18:12:11.625Z,21.07
2023-03-10T18:14:14.442Z,26.73
2023-03-10T18:16:18.439Z,21.40
2023-03-10T18:18:21.173Z,24.30
2023-03-10T18:20:25.454Z,24.33
2023-03-10T18:22:28.175Z,25.80
2023-03-10T18:24:30.904Z,20.30
2023-03-10T18:26:33.748Z,20.33
2023-03-10T18:28:36.689Z,23.43
2023-03-10T18:30:41.576Z,17.20
2023-03-10T18:32:44.492Z,18.47
2023-03-10T18:34:47.265Z,22.53
2023-03-10T18:36:51.861Z,21.70
2023-03-10T18:38:54.622Z,20.67
2023-03-10T18:40:58.020Z,27.83
2023-03-10T18:43:00.748Z,22.30
2023-03-10T18:45:03.470Z,22.93
2023-03-10T18:47:06.387Z,26.53
2023-03-10T18:49:09.118Z,17.03
2023-03-10T18:51:12.511Z,21.23
2023-03-10T18:53:16.554Z,20.47
2023-03-10T18:55:19.334Z,15.20
2023-03-10T18:57:22.061Z,15.23
2023-03-10T18:59:24.806Z,15.87
2023-03-10T19:01:27.706Z,14.10
2023-03-10T19:03:30.481Z,16.53
2023-03-10T19:05:33.195Z,18.23
2023-03-10T19:07:36.693Z,18.27
2023-03-10T19:09:40.770Z,17.00
2023-03-10T19:11:43.543Z,12.90
2023-03-10T19:13:46.322Z,12.10
2023-03-10T19:15:49.486Z,12.40
2023-03-10T19:17:52.252Z,13.17
2023-03-10T19:19:55.006Z,13.40
2023-03-10T19:21:57.872Z,12.23
2023-03-10T19:24:00.591Z,17.87
2023-03-10T19:26:04.921Z,13.87
2023-03-10T19:28:08.290Z,13.40
2023-03-10T19:30:12.605Z,14.50
2023-03-10T19:32:15.328Z,12.43
2023-03-10T19:34:18.255Z,13.77
2023-03-10T19:36:20.979Z,11.17
2023-03-10T19:38:23.690Z,11.50
2023-03-10T19:40:26.430Z,10.67
2023-03-10T19:42:30.696Z,12.13
2023-03-10T19:44:33.437Z,10.33
2023-03-10T19:46:36.193Z,10.37
2023-03-10T19:48:39.048Z,11.43
2023-03-10T19:50:41.774Z,13.20
2023-03-10T19:52:45.295Z,11.10
2023-03-10T19:54:48.038Z,10.30
2023-03-10T19:56:50.761Z,8.30
2023-03-10T19:58:54.856Z,11.17
2023-03-10T20:00:58.399Z,12.00
2023-03-10T20:03:01.255Z,13.87
2023-03-10T20:05:04.005Z,13.43
2023-03-10T20:07:06.812Z,9.97
2023-03-10T20:09:10.642Z,13.07
2023-03-10T20:11:14.770Z,12.53
2023-03-10T20:13:17.492Z,13.60
2023-03-10T20:15:21.610Z,16.70
2023-03-10T20:17:24.332Z,15.80
2023-03-10T20:19:27.094Z,16.20
2023-03-10T20:21:29.885Z,19.33
2023-03-10T20:23:32.652Z,15.53
2023-03-10T20:25:35.410Z,16.40
2023-03-10T20:27:38.222Z,14.47
2023-03-10T20:29:40.940Z,13.53
2023-03-10T20:31:45.038Z,14.43
2023-03-10T20:33:47.880Z,14.57
2023-03-10T20:35:50.665Z,12.27
2023-03-10T20:37:53.408Z,12.87
2023-03-10T20:39:56.521Z,12.30
2023-03-10T20:41:59.277Z,20.03
2023-03-10T20:44:02.806Z,14.03
2023-03-10T20:46:05.796Z,11.83
2023-03-10T20:48:09.950Z,12.43
2023-03-10T20:50:13.812Z,10.63
2023-03-10T20:52:16.555Z,10.70
2023-03-10T20:54:19.288Z,11.17
2023-03-10T20:56:21.999Z,10.13
2023-03-10T20:58:24.771Z,12.13
2023-03-10T21:00:28.162Z,11.20
2023-03-10T21:02:30.920Z,11.93
2023-03-10T21:04:35.062Z,11.70
2023-03-10T21:06:37.999Z,11.87
2023-03-10T21:08:40.760Z,11.47
2023-03-10T21:10:44.577Z,18.40
2023-03-10T21:12:47.405Z,10.10
2023-03-10T21:14:50.148Z,13.93
2023-03-10T21:16:53.274Z,16.63
2023-03-10T21:18:56.063Z,11.27
2023-03-10T21:21:00.145Z,13.17
2023-03-10T21:23:02.979Z,16.53
2023-03-10T21:25:06.822Z,15.00
2023-03-10T21:27:09.990Z,14.37
2023-03-10T21:29:12.741Z,17.67
2023-03-10T21:31:15.593Z,14.80
2023-03-10T21:33:18.336Z,17.23
2023-03-10T21:35:21.074Z,15.70
2023-03-10T21:37:25.321Z,17.63
2023-03-10T21:39:28.141Z,16.97
2023-03-10T21:41:31.102Z,16.17
2023-03-10T21:43:33.844Z,19.20
2023-03-10T21:45:37.417Z,20.33
2023-03-10T21:47:40.581Z,14.50
2023-03-10T21:49:43.336Z,13.60
2023-03-10T21:51:46.070Z,17.10
2023-03-10T21:53:50.190Z,17.90
2023-03-10T21:55:53.229Z,19.90
2023-03-10T21:57:55.988Z,18.17
2023-03-10T21:59:58.724Z,19.73
2023-03-10T22:02:01.571Z,15.70
2023-03-10T22:04:04.688Z,21.00
2023-03-10T22:06:07.476Z,16.37
2023-03-10T22:08:10.189Z,19.07
2023-03-10T22:10:14.351Z,12.83
2023-03-10T22:12:18.505Z,18.27
2023-03-10T22:14:23.289Z,20.50
2023-03-10T22:16:27.209Z,16.37
2023-03-10T22:18:30.116Z,17.17
2023-03-10T22:20:33.115Z,13.57
2023-03-10T22:22:35.831Z,14.87
2023-03-10T22:24:38.564Z,13.87
2023-03-10T22:26:42.622Z,16.20
2023-03-10T22:28:45.346Z,10.60
2023-03-10T22:30:48.098Z,13.87
2023-03-10T22:32:50.954Z,15.40
2023-03-10T22:34:53.777Z,18.63
2023-03-10T22:36:56.487Z,14.20
2023-03-10T22:38:59.200Z,18.10
2023-03-10T22:41:01.938Z,19.93
2023-03-10T22:43:06.059Z,15.80
2023-03-10T22:45:09.464Z,17.80
2023-03-10T22:47:12.189Z,19.07
2023-03-10T22:49:15.127Z,18.63
2023-03-10T22:51:18.797Z,19.27
2023-03-10T22:53:21.859Z,19.90
2023-03-10T22:55:25.286Z,20.17
2023-03-10T22:57:28.010Z,18.93
2023-03-10T22:59:32.074Z,19.93
2023-03-10T23:01:34.872Z,18.73
2023-03-10T23:03:37.607Z,22.27
2023-03-10T23:05:40.463Z,22.53
2023-03-10T23:07:43.293Z,22.43
2023-03-10T23:09:46.025Z,26.03
2023-03-10T23:11:49.007Z,27.40
2023-03-10T23:13:51.748Z,28.43
2023-03-10T23:15:55.849Z,31.83
2023-03-10T23:17:58.688Z,33.37
2023-03-10T23:20:01.423Z,31.90
2023-03-10T23:22:04.597Z,31.57
2023-03-10T23:24:07.729Z,30.03
2023-03-10T23:26:11.363Z,29.77
2023-03-10T23:28:14.196Z,26.33
2023-03-10T23:30:17.165Z,24.50
2023-03-10T23:32:21.232Z,24.73
2023-03-10T23:34:23.975Z,26.77
2023-03-10T23:36:26.762Z,23.30
2023-03-10T23:38:29.558Z,24.20
2023-03-10T23:40:32.451Z,20.20
2023-03-10T23:42:35.183Z,21.60
2023-03-10T23:44:37.921Z,20.27
2023-03-10T23:46:40.682Z,22.63
2023-03-10T23:48:44.764Z,21.23
2023-03-10T23:50:48.113Z,23.30
2023-03-10T23:52:51.165Z,18.47
2023-03-10T23:54:53.929Z,21.60
2023-03-10T23:56:56.686Z,22.33
2023-03-10T23:58:59.386Z,19.20
